Wetterdaten: Donnerstag, 25.02.2021
Datum Zeit Temp. Auen Feucht Auen Luftdruck Regen Richtung Richtung Windben
25.02.2021 00:00 1,9 C 85 % 1033,4 hPa 0,0 mm W-NW 292 3,2 km/h (1 Bft)
25.02.2021 00:05 1,9 C 85 % 1033,4 hPa 0,0 mm W-NW 292 3,2 km/h (1 Bft)
25.02.2021 00:10 1,8 C 85 % 1033,4 hPa 0,0 mm W-NW 292 3,2 km/h (1 Bft)
25.02.2021 00:15 1,8 C 86 % 1033,4 hPa 0,0 mm W-NW 292 4,8 km/h (1 Bft)
25.02.2021 00:20 1,8 C 86 % 1033,4 hPa 0,0 mm W-NW 292 4,8 km/h (1 Bft)
25.02.2021 00:25 1,8 C 86 % 1033,4 hPa 0,0 mm W-NW 292 1,6 km/h (1 Bft)
25.02.2021 00:30 1,7 C 86 % 1033,4 hPa 0,0 mm W-NW 292 1,6 km/h (1 Bft)
25.02.2021 00:35 1,7 C 86 % 1033,4 hPa 0,0 mm W-NW 292 3,2 km/h (1 Bft)
25.02.2021 00:40 1,6 C 86 % 1033,4 hPa 0,0 mm W-NW 292 3,2 km/h (1 Bft)
25.02.2021 00:45 1,6 C 86 % 1033,3 hPa 0,0 mm W-NW 292 3,2 km/h (1 Bft)
25.02.2021 00:50 1,5 C 86 % 1033,3 hPa 0,0 mm N 0 0,0 km/h (0 Bft)
25.02.2021 00:55 1,4 C 86 % 1033,2 hPa 0,0 mm W-NW 292 4,8 km/h (1 Bft)
25.02.2021 01:00 1,4 C 86 % 1033,2 hPa 0,0 mm W-NW 292 1,6 km/h (1 Bft)
25.02.2021 01:05 1,3 C 86 % 1033,2 hPa 0,0 mm W-NW 292 4,8 km/h (1 Bft)
25.02.2021 01:10 1,2 C 86 % 1033,2 hPa 0,0 mm W-NW 292 4,8 km/h (1 Bft)
25.02.2021 01:15 1,1 C 86 % 1033,2 hPa 0,0 mm N 0 0,0 km/h (0 Bft)
25.02.2021 01:20 1,1 C 87 % 1033,2 hPa 0,0 mm N 0 0,0 km/h (0 Bft)
25.02.2021 01:25 1,0 C 86 % 1033,2 hPa 0,0 mm W-NW 292 1,6 km/h (1 Bft)
25.02.2021 01:30 0,9 C 87 % 1033,1 hPa 0,0 mm W-NW 292 3,2 km/h (1 Bft)
25.02.2021 01:35 0,9 C 87 % 1033,1 hPa 0,0 mm W-NW 292 4,8 km/h (1 Bft)
25.02.2021 01:40 0,9 C 87 % 1033,1 hPa 0,0 mm W-NW 292 4,8 km/h (1 Bft)
25.02.2021 01:45 0,8 C 87 % 1033,0 hPa 0,0 mm W-NW 292 4,8 km/h (1 Bft)
25.02.2021 01:50 0,8 C 87 % 1033,0 hPa 0,0 mm W-NW 292 4,8 km/h (1 Bft)
25.02.2021 01:55 0,8 C 87 % 1032,9 hPa 0,0 mm W-NW 292 3,2 km/h (1 Bft)
25.02.2021 02:00 0,8 C 87 % 1032,9 hPa 0,0 mm W-NW 292 3,2 km/h (1 Bft)
25.02.2021 02:05 0,8 C 87 % 1032,8 hPa 0,0 mm N 0 0,0 km/h (0 Bft)
25.02.2021 02:10 0,7 C 87 % 1032,8 hPa 0,0 mm N 0 0,0 km/h (0 Bft)
25.02.2021 02:15 0,7 C 87 % 1032,7 hPa 0,0 mm W-NW 292 4,8 km/h (1 Bft)
25.02.2021 02:20 0,7 C 88 % 1032,8 hPa 0,0 mm W-NW 292 4,8 km/h (1 Bft)
25.02.2021 02:25 0,7 C 88 % 1032,8 hPa 0,0 mm W-NW 292 4,8 km/h (1 Bft)
25.02.2021 02:30 0,7 C 88 % 1032,8 hPa 0,0 mm W-NW 292 3,2 km/h (1 Bft)
25.02.2021 02:35 0,7 C 88 % 1032,8 hPa 0,0 mm W-NW 292 3,2 km/h (1 Bft)
25.02.2021 02:40 0,7 C 88 % 1032,7 hPa 0,0 mm W-NW 292 4,8 km/h (1 Bft)
25.02.2021 02:45 0,6 C 88 % 1032,7 hPa 0,0 mm W-NW 292 6,4 km/h (2 Bft)
25.02.2021 02:50 0,6 C 88 % 1032,6 hPa 0,0 mm W-NW 292 4,8 km/h (1 Bft)
25.02.2021 02:55 0,6 C 88 % 1032,5 hPa 0,0 mm W-NW 292 4,8 km/h (1 Bft)
25.02.2021 03:00 0,6 C 88 % 1032,5 hPa 0,0 mm W-NW 292 1,6 km/h (1 Bft)
25.02.2021 03:05 0,6 C 88 % 1032,5 hPa 0,0 mm N 0 0,0 km/h (0 Bft)
25.02.2021 03:10 0,5 C 88 % 1032,5 hPa 0,0 mm N 0 0,0 km/h (0 Bft)
25.02.2021 03:15 0,5 C 88 % 1032,4 hPa 0,0 mm N 0 0,0 km/h (0 Bft)
25.02.2021 03:20 0,4 C 88 % 1032,3 hPa 0,0 mm W-NW 292 4,8 km/h (1 Bft)
25.02.2021 03:25 0,3 C 88 % 1032,3 hPa 0,0 mm W-NW 292 3,2 km/h (1 Bft)
25.02.2021 03:30 0,3 C 88 % 1032,3 hPa 0,0 mm W-NW 292 3,2 km/h (1 Bft)
25.02.2021 03:35 0,3 C 88 % 1032,3 hPa 0,0 mm N 0 0,0 km/h (0 Bft)
25.02.2021 03:40 0,2 C 88 % 1032,2 hPa 0,0 mm W-NW 292 1,6 km/h (1 Bft)
25.02.2021 03:45 0,2 C 88 % 1032,2 hPa 0,0 mm W-NW 292 3,2 km/h (1 Bft)
25.02.2021 03:50 0,1 C 88 % 1032,3 hPa 0,0 mm W-NW 292 3,2 km/h (1 Bft)
25.02.2021 03:55 0,1 C 88 % 1032,2 hPa 0,0 mm W-NW 292 1,6 km/h (1 Bft)
25.02.2021 04:00 0,1 C 88 % 1032,2 hPa 0,0 mm N 0 0,0 km/h (0 Bft)
25.02.2021 04:05 0,0 C 88 % 1032,2 hPa 0,0 mm N 0 0,0 km/h (0 Bft)
25.02.2021 04:10 -0,1 C 88 % 1032,3 hPa 0,0 mm N 0 0,0 km/h (0 Bft)
25.02.2021 04:15 -0,1 C 88 % 1032,3 hPa 0,0 mm N 0 0,0 km/h (0 Bft)
25.02.2021 04:20 -0,2 C 88 % 1032,2 hPa 0,0 mm N 0 0,0 km/h (0 Bft)
25.02.2021 04:25 -0,2 C 88 % 1032,3 hPa 0,0 mm N 0 0,0 km/h (0 Bft)
25.02.2021 04:30 -0,3 C 88 % 1032,3 hPa 0,0 mm N 0 0,0 km/h (0 Bft)
25.02.2021 04:35 -0,4 C 88 % 1032,3 hPa 0,0 mm N 0 0,0 km/h (0 Bft)
25.02.2021 04:40 -0,4 C 88 % 1032,3 hPa 0,0 mm N 0 0,0 km/h (0 Bft)
25.02.2021 04:45 -0,4 C 88 % 1032,4 hPa 0,0 mm N 0 0,0 km/h (0 Bft)
25.02.2021 04:50 -0,5 C 88 % 1032,4 hPa 0,0 mm N 0 0,0 km/h (0 Bft)
25.02.2021 04:55 -0,6 C 88 % 1032,4 hPa 0,0 mm N 0 0,0 km/h (0 Bft)
25.02.2021 05:00 -0,6 C 89 % 1032,4 hPa 0,0 mm N 0 0,0 km/h (0 Bft)
25.02.2021 05:05 -0,6 C 89 % 1032,5 hPa 0,0 mm N 0 0,0 km/h (0 Bft)
25.02.2021 05:10 -0,6 C 89 % 1032,5 hPa 0,0 mm N 0 0,0 km/h (0 Bft)
25.02.2021 05:15 -0,6 C 89 % 1032,5 hPa 0,0 mm N 0 0,0 km/h (0 Bft)
25.02.2021 05:20 -0,6 C 89 % 1032,5 hPa 0,0 mm N 0 0,0 km/h (0 Bft)
25.02.2021 05:25 -0,6 C 89 % 1032,6 hPa 0,0 mm N 0 0,0 km/h (0 Bft)
25.02.2021 05:30 -0,6 C 89 % 1032,6 hPa 0,0 mm W-NW 292 4,8 km/h (1 Bft)
25.02.2021 05:35 -0,6 C 89 % 1032,6 hPa 0,0 mm W-NW 292 3,2 km/h (1 Bft)
25.02.2021 05:40 -0,6 C 89 % 1032,7 hPa 0,0 mm W-NW 292 1,6 km/h (1 Bft)
25.02.2021 05:45 -0,6 C 89 % 1032,6 hPa 0,0 mm W-NW 292 1,6 km/h (1 Bft)
25.02.2021 05:50 -0,6 C 89 % 1032,6 hPa 0,0 mm W-NW 292 3,2 km/h (1 Bft)
25.02.2021 05:55 -0,6 C 89 % 1032,6 hPa 0,0 mm W-NW 292 3,2 km/h (1 Bft)
25.02.2021 06:00 -0,7 C 89 % 1032,5 hPa 0,0 mm W-NW 292 4,8 km/h (1 Bft)
25.02.2021 06:05 -0,7 C 89 % 1032,6 hPa 0,0 mm W-NW 292 4,8 km/h (1 Bft)
25.02.2021 06:10 -0,7 C 89 % 1032,6 hPa 0,0 mm W-NW 292 1,6 km/h (1 Bft)
25.02.2021 06:15 -0,7 C 89 % 1032,6 hPa 0,0 mm N 0 0,0 km/h (0 Bft)
25.02.2021 06:20 -0,7 C 89 % 1032,6 hPa 0,0 mm W-NW 292 4,8 km/h (1 Bft)
25.02.2021 06:25 -0,7 C 89 % 1032,6 hPa 0,0 mm W-NW 292 6,4 km/h (2 Bft)
25.02.2021 06:30 -0,8 C 89 % 1032,6 hPa 0,0 mm W 270 3,2 km/h (1 Bft)
25.02.2021 06:35 -0,8 C 89 % 1032,5 hPa 0,0 mm W 270 4,8 km/h (1 Bft)
25.02.2021 06:40 -0,8 C 89 % 1032,6 hPa 0,0 mm W 270 3,2 km/h (1 Bft)
25.02.2021 06:45 -0,8 C 89 % 1032,6 hPa 0,0 mm W 270 3,2 km/h (1 Bft)
25.02.2021 06:50 -0,9 C 89 % 1032,6 hPa 0,0 mm W 270 3,2 km/h (1 Bft)
25.02.2021 06:55 -0,9 C 89 % 1032,6 hPa 0,0 mm W 270 3,2 km/h (1 Bft)
25.02.2021 07:00 -0,9 C 89 % 1032,5 hPa 0,0 mm W 270 4,8 km/h (1 Bft)
25.02.2021 07:05 -0,9 C 89 % 1032,6 hPa 0,0 mm W 270 4,8 km/h (1 Bft)
25.02.2021 07:10 -0,9 C 89 % 1032,6 hPa 0,0 mm W 270 3,2 km/h (1 Bft)
25.02.2021 07:15 -0,9 C 89 % 1032,7 hPa 0,0 mm N 0 0,0 km/h (0 Bft)
25.02.2021 07:20 -0,9 C 89 % 1032,7 hPa 0,0 mm N 0 0,0 km/h (0 Bft)
25.02.2021 07:25 -0,9 C 89 % 1032,8 hPa 0,0 mm N 0 0,0 km/h (0 Bft)
25.02.2021 07:30 -0,9 C 89 % 1032,8 hPa 0,0 mm N 0 0,0 km/h (0 Bft)
25.02.2021 07:35 -0,8 C 89 % 1032,8 hPa 0,0 mm N 0 0,0 km/h (0 Bft)
25.02.2021 07:40 -0,8 C 89 % 1033,0 hPa 0,0 mm N 0 0,0 km/h (0 Bft)
25.02.2021 07:45 -0,3 C 90 % 1033,1 hPa 0,0 mm N 0 0,0 km/h (0 Bft)
25.02.2021 07:50 0,3 C 90 % 1033,1 hPa 0,0 mm N 0 0,0 km/h (0 Bft)
25.02.2021 07:55 0,7 C 90 % 1033,1 hPa 0,0 mm N 0 0,0 km/h (0 Bft)
25.02.2021 08:00 1,0 C 89 % 1033,0 hPa 0,0 mm W 270 1,6 km/h (1 Bft)
25.02.2021 08:05 1,3 C 89 % 1032,9 hPa 0,0 mm N 0 0,0 km/h (0 Bft)
25.02.2021 08:10 1,7 C 89 % 1033,0 hPa 0,2 mm N 0 0,0 km/h (0 Bft)
25.02.2021 08:15 1,9 C 89 % 1033,0 hPa 0,0 mm N 0 0,0 km/h (0 Bft)
25.02.2021 08:20 2,2 C 89 % 1033,0 hPa 0,0 mm N 0 0,0 km/h (0 Bft)
25.02.2021 08:25 2,8 C 89 % 1033,1 hPa 0,0 mm N 0 0,0 km/h (0 Bft)
25.02.2021 08:30 3,3 C 87 % 1033,0 hPa 0,0 mm N 0 0,0 km/h (0 Bft)
25.02.2021 08:35 3,8 C 86 % 1033,0 hPa 0,0 mm W 270 1,6 km/h (1 Bft)
25.02.2021 08:40 4,2 C 86 % 1033,0 hPa 0,0 mm W 270 1,6 km/h (1 Bft)
25.02.2021 08:45 4,9 C 85 % 1033,1 hPa 0,0 mm W 270 1,6 km/h (1 Bft)
25.02.2021 08:50 5,8 C 82 % 1033,1 hPa 0,0 mm N 0 0,0 km/h (0 Bft)
25.02.2021 08:55 6,2 C 78 % 1033,1 hPa 0,0 mm N 0 0,0 km/h (0 Bft)
25.02.2021 09:00 6,6 C 78 % 1033,0 hPa 0,0 mm W 270 1,6 km/h (1 Bft)
25.02.2021 09:05 6,9 C 77 % 1032,9 hPa 0,0 mm W 270 1,6 km/h (1 Bft)
25.02.2021 09:10 6,8 C 76 % 1033,0 hPa 0,0 mm N 0 0,0 km/h (0 Bft)
25.02.2021 09:15 7,3 C 78 % 1033,0 hPa 0,0 mm N 0 0,0 km/h (0 Bft)
25.02.2021 09:20 7,8 C 76 % 1032,9 hPa 0,0 mm N 0 0,0 km/h (0 Bft)
25.02.2021 09:25 8,3 C 76 % 1032,9 hPa 0,0 mm N 0 0,0 km/h (0 Bft)
25.02.2021 09:30 8,6 C 74 % 1032,8 hPa 0,0 mm N 0 0,0 km/h (0 Bft)
25.02.2021 09:35 9,1 C 72 % 1032,8 hPa 0,0 mm N 0 0,0 km/h (0 Bft)
25.02.2021 09:40 9,4 C 70 % 1032,7 hPa 0,0 mm N 0 0,0 km/h (0 Bft)
25.02.2021 09:45 9,9 C 70 % 1032,6 hPa 0,0 mm W 270 1,6 km/h (1 Bft)
25.02.2021 09:50 10,2 C 69 % 1032,6 hPa 0,0 mm W 270 1,6 km/h (1 Bft)
25.02.2021 09:55 10,7 C 67 % 1032,6 hPa 0,0 mm W 270 1,6 km/h (1 Bft)
25.02.2021 10:00 11,3 C 65 % 1032,5 hPa 0,0 mm W 270 3,2 km/h (1 Bft)
25.02.2021 10:05 11,4 C 62 % 1032,5 hPa 0,0 mm N 0 0,0 km/h (0 Bft)
25.02.2021 10:10 10,8 C 63 % 1032,5 hPa 0,0 mm W 270 1,6 km/h (1 Bft)
25.02.2021 10:15 10,7 C 63 % 1032,5 hPa 0,0 mm W 270 3,2 km/h (1 Bft)
25.02.2021 10:20 10,8 C 65 % 1032,4 hPa 0,0 mm W 270 3,2 km/h (1 Bft)
25.02.2021 10:25 11,1 C 65 % 1032,3 hPa 0,0 mm W 270 4,8 km/h (1 Bft)
25.02.2021 10:30 11,2 C 68 % 1032,3 hPa 0,0 mm O-NO 67 3,2 km/h (1 Bft)
25.02.2021 10:35 11,2 C 69 % 1032,3 hPa 0,0 mm O-NO 67 3,2 km/h (1 Bft)
25.02.2021 10:40 11,3 C 66 % 1032,2 hPa 0,0 mm O 90 4,8 km/h (1 Bft)
25.02.2021 10:45 11,5 C 65 % 1032,2 hPa 0,0 mm O 90 4,8 km/h (1 Bft)
25.02.2021 10:50 11,6 C 65 % 1032,2 hPa 0,0 mm O 90 4,8 km/h (1 Bft)
25.02.2021 10:55 11,8 C 66 % 1032,1 hPa 0,0 mm O 90 8,0 km/h (2 Bft)
25.02.2021 11:00 12,0 C 64 % 1032,1 hPa 0,0 mm O 90 4,8 km/h (1 Bft)
25.02.2021 11:05 12,3 C 63 % 1032,1 hPa 0,0 mm O 90 8,0 km/h (2 Bft)
25.02.2021 11:10 12,8 C 63 % 1032,0 hPa 0,0 mm O-SO 112 8,0 km/h (2 Bft)
25.02.2021 11:15 13,0 C 63 % 1032,0 hPa 0,0 mm O-SO 112 4,8 km/h (1 Bft)
25.02.2021 11:20 13,3 C 65 % 1032,0 hPa 0,0 mm O-SO 112 4,8 km/h (1 Bft)
25.02.2021 11:25 13,6 C 63 % 1031,9 hPa 0,0 mm O-SO 112 6,4 km/h (2 Bft)
25.02.2021 11:30 13,7 C 60 % 1031,9 hPa 0,0 mm O-SO 112 8,0 km/h (2 Bft)
25.02.2021 11:35 14,0 C 61 % 1031,9 hPa 0,0 mm O 90 4,8 km/h (1 Bft)
25.02.2021 11:40 14,1 C 61 % 1031,9 hPa 0,0 mm O 90 8,0 km/h (2 Bft)
25.02.2021 11:45 14,2 C 60 % 1031,8 hPa 0,0 mm O 90 4,8 km/h (1 Bft)
25.02.2021 11:50 14,4 C 61 % 1031,8 hPa 0,0 mm O 90 4,8 km/h (1 Bft)
25.02.2021 11:55 14,7 C 58 % 1031,8 hPa 0,0 mm SO 135 6,4 km/h (2 Bft)
25.02.2021 12:00 15,0 C 57 % 1031,7 hPa 0,0 mm SO 135 6,4 km/h (2 Bft)
25.02.2021 12:05 15,2 C 58 % 1031,6 hPa 0,0 mm SO 135 4,8 km/h (1 Bft)
25.02.2021 12:10 15,4 C 57 % 1031,5 hPa 0,0 mm SO 135 6,4 km/h (2 Bft)
25.02.2021 12:15 15,7 C 58 % 1031,5 hPa 0,0 mm O-SO 112 6,4 km/h (2 Bft)
25.02.2021 12:20 15,8 C 57 % 1031,4 hPa 0,0 mm O-SO 112 4,8 km/h (1 Bft)
25.02.2021 12:25 16,0 C 53 % 1031,4 hPa 0,0 mm O-SO 112 4,8 km/h (1 Bft)
25.02.2021 12:30 16,1 C 53 % 1031,2 hPa 0,0 mm O-SO 112 4,8 km/h (1 Bft)
25.02.2021 12:35 16,3 C 51 % 1031,2 hPa 0,0 mm O-SO 112 4,8 km/h (1 Bft)
25.02.2021 12:40 16,4 C 50 % 1031,2 hPa 0,0 mm O-SO 112 6,4 km/h (2 Bft)
25.02.2021 12:45 16,7 C 48 % 1031,1 hPa 0,0 mm O-SO 112 6,4 km/h (2 Bft)
25.02.2021 12:50 16,7 C 48 % 1031,0 hPa 0,0 mm O-SO 112 4,8 km/h (1 Bft)
25.02.2021 12:55 16,8 C 44 % 1031,0 hPa 0,0 mm O 90 8,0 km/h (2 Bft)
25.02.2021 13:00 17,1 C 45 % 1030,9 hPa 0,0 mm O 90 8,0 km/h (2 Bft)
25.02.2021 13:05 17,0 C 43 % 1030,8 hPa 0,0 mm O-SO 112 6,4 km/h (2 Bft)
25.02.2021 13:10 17,1 C 42 % 1030,7 hPa 0,0 mm O-SO 112 6,4 km/h (2 Bft)
25.02.2021 13:15 17,3 C 43 % 1030,7 hPa 0,0 mm O 90 8,0 km/h (2 Bft)
25.02.2021 13:20 17,6 C 45 % 1030,6 hPa 0,0 mm O-SO 112 8,0 km/h (2 Bft)
25.02.2021 13:25 17,7 C 42 % 1030,6 hPa 0,0 mm O-SO 112 6,4 km/h (2 Bft)
25.02.2021 13:30 17,8 C 37 % 1030,5 hPa 0,0 mm O-SO 112 9,7 km/h (2 Bft)
25.02.2021 13:35 17,9 C 38 % 1030,5 hPa 0,0 mm O-SO 112 6,4 km/h (2 Bft)
25.02.2021 13:40 18,1 C 35 % 1030,4 hPa 0,0 mm O-SO 112 6,4 km/h (2 Bft)
25.02.2021 13:45 18,1 C 33 % 1030,4 hPa 0,0 mm O 90 8,0 km/h (2 Bft)
25.02.2021 13:55 18,1 C 36 % 1030,3 hPa 0,0 mm SO 129 8,0 km/h (2 Bft)
25.02.2021 14:00 18,2 C 39 % 1030,3 hPa 0,0 mm SO 124 6,4 km/h (2 Bft)
25.02.2021 14:05 18,3 C 39 % 1030,3 hPa 0,0 mm O-SO 121 8,0 km/h (2 Bft)
25.02.2021 14:10 18,2 C 38 % 1030,3 hPa 0,0 mm O 97 8,0 km/h (2 Bft)
25.02.2021 14:15 18,2 C 39 % 1030,2 hPa 0,0 mm O 101 8,0 km/h (2 Bft)
25.02.2021 14:20 18,2 C 40 % 1030,1 hPa 0,0 mm O-SO 113 6,4 km/h (2 Bft)
25.02.2021 14:25 18,2 C 42 % 1030,1 hPa 0,0 mm O-SO 112 9,7 km/h (2 Bft)
25.02.2021 14:30 18,0 C 47 % 1030,1 hPa 0,0 mm O-NO 73 9,7 km/h (2 Bft)
25.02.2021 14:35 17,8 C 49 % 1030,1 hPa 0,0 mm O-SO 113 9,7 km/h (2 Bft)
25.02.2021 14:40 17,6 C 48 % 1030,0 hPa 0,0 mm O-SO 109 6,4 km/h (2 Bft)
25.02.2021 14:45 17,4 C 47 % 1030,0 hPa 0,0 mm O-SO 111 8,0 km/h (2 Bft)
25.02.2021 14:50 17,3 C 47 % 1030,0 hPa 0,0 mm O-SO 120 4,8 km/h (1 Bft)
25.02.2021 14:55 17,3 C 47 % 1030,0 hPa 0,0 mm O-SO 120 4,8 km/h (1 Bft)
25.02.2021 15:00 17,3 C 46 % 1030,0 hPa 0,0 mm O-SO 119 6,4 km/h (2 Bft)
25.02.2021 15:05 17,2 C 43 % 1029,9 hPa 0,0 mm SO 126 6,4 km/h (2 Bft)
25.02.2021 15:10 17,1 C 44 % 1030,0 hPa 0,0 mm SO 125 4,8 km/h (1 Bft)
25.02.2021 15:15 17,2 C 43 % 1030,0 hPa 0,0 mm SO 125 4,8 km/h (1 Bft)
25.02.2021 15:20 17,2 C 45 % 1030,0 hPa 0,0 mm SO 125 4,8 km/h (1 Bft)
25.02.2021 15:25 17,2 C 45 % 1029,9 hPa 0,0 mm SO 125 4,8 km/h (1 Bft)
25.02.2021 15:30 17,1 C 44 % 1029,8 hPa 0,0 mm SO 137 6,4 km/h (2 Bft)
25.02.2021 15:35 17,0 C 44 % 1029,8 hPa 0,0 mm SO 144 6,4 km/h (2 Bft)
25.02.2021 15:40 16,9 C 44 % 1029,8 hPa 0,0 mm SO 144 4,8 km/h (1 Bft)
25.02.2021 15:45 16,8 C 45 % 1029,8 hPa 0,0 mm O-SO 105 4,8 km/h (1 Bft)
25.02.2021 15:50 16,6 C 44 % 1029,8 hPa 0,0 mm O-SO 107 8,0 km/h (2 Bft)
25.02.2021 15:55 16,4 C 44 % 1029,8 hPa 0,0 mm O-SO 107 6,4 km/h (2 Bft)
25.02.2021 16:00 16,3 C 46 % 1029,7 hPa 0,0 mm O-SO 107 4,8 km/h (1 Bft)
25.02.2021 16:05 16,3 C 45 % 1029,7 hPa 0,0 mm O-SO 107 4,8 km/h (1 Bft)
25.02.2021 16:10 16,2 C 45 % 1029,8 hPa 0,0 mm O-SO 123 6,4 km/h (2 Bft)
25.02.2021 16:15 16,1 C 46 % 1029,8 hPa 0,0 mm O-SO 123 4,8 km/h (1 Bft)
25.02.2021 16:20 16,0 C 47 % 1029,8 hPa 0,0 mm SO 142 4,8 km/h (1 Bft)
25.02.2021 16:25 15,9 C 47 % 1029,7 hPa 0,0 mm SO 143 6,4 km/h (2 Bft)
25.02.2021 16:30 15,8 C 48 % 1029,7 hPa 0,0 mm SO 143 4,8 km/h (1 Bft)
25.02.2021 16:35 15,7 C 49 % 1029,7 hPa 0,0 mm SO 143 1,6 km/h (1 Bft)
25.02.2021 16:40 15,6 C 50 % 1029,8 hPa 0,0 mm SO 143 1,6 km/h (1 Bft)
25.02.2021 16:45 15,6 C 51 % 1029,7 hPa 0,0 mm SO 143 1,6 km/h (1 Bft)
25.02.2021 16:50 15,4 C 51 % 1029,8 hPa 0,0 mm SO 143 0,0 km/h (0 Bft)
25.02.2021 16:55 15,3 C 52 % 1029,8 hPa 0,0 mm SO 143 0,0 km/h (0 Bft)
25.02.2021 17:00 15,1 C 53 % 1029,8 hPa 0,0 mm SO 143 0,0 km/h (0 Bft)
25.02.2021 17:05 14,9 C 52 % 1029,8 hPa 0,0 mm SO 143 0,0 km/h (0 Bft)
25.02.2021 17:10 14,6 C 51 % 1030,0 hPa 0,0 mm SO 143 0,0 km/h (0 Bft)
25.02.2021 17:15 14,3 C 52 % 1030,0 hPa 0,0 mm SO 143 0,0 km/h (0 Bft)
25.02.2021 17:20 14,1 C 52 % 1030,0 hPa 0,0 mm SO 143 0,0 km/h (0 Bft)
25.02.2021 17:25 13,9 C 53 % 1030,0 hPa 0,0 mm SO 143 0,0 km/h (0 Bft)
25.02.2021 17:30 13,7 C 53 % 1030,0 hPa 0,0 mm SO 143 0,0 km/h (0 Bft)
25.02.2021 17:35 13,4 C 54 % 1030,1 hPa 0,0 mm SO 143 0,0 km/h (0 Bft)
25.02.2021 17:40 13,2 C 54 % 1030,1 hPa 0,0 mm SO 143 0,0 km/h (0 Bft)
25.02.2021 17:45 12,8 C 54 % 1030,2 hPa 0,0 mm SO 143 0,0 km/h (0 Bft)
25.02.2021 17:50 12,5 C 55 % 1030,2 hPa 0,0 mm SO 143 0,0 km/h (0 Bft)
25.02.2021 17:55 12,2 C 56 % 1030,3 hPa 0,0 mm SO 143 1,6 km/h (1 Bft)
25.02.2021 18:00 11,9 C 56 % 1030,3 hPa 0,0 mm SO 143 1,6 km/h (1 Bft)
25.02.2021 18:05 11,6 C 57 % 1030,4 hPa 0,0 mm SO 143 1,6 km/h (1 Bft)
25.02.2021 18:10 11,2 C 58 % 1030,3 hPa 0,0 mm S-SW 211 3,2 km/h (1 Bft)
25.02.2021 18:15 10,9 C 58 % 1030,4 hPa 0,0 mm S-SW 211 1,6 km/h (1 Bft)
25.02.2021 18:20 10,5 C 59 % 1030,4 hPa 0,0 mm S-SW 211 3,2 km/h (1 Bft)
25.02.2021 18:25 10,2 C 60 % 1030,5 hPa 0,0 mm S-SW 211 3,2 km/h (1 Bft)
25.02.2021 18:30 9,8 C 61 % 1030,6 hPa 0,0 mm S-SW 211 3,2 km/h (1 Bft)
25.02.2021 18:35 9,5 C 62 % 1030,6 hPa 0,0 mm S-SW 211 1,6 km/h (1 Bft)
25.02.2021 18:40 9,2 C 63 % 1030,7 hPa 0,0 mm S-SW 211 0,0 km/h (0 Bft)
25.02.2021 18:45 9,0 C 63 % 1030,7 hPa 0,0 mm S-SW 211 0,0 km/h (0 Bft)
25.02.2021 18:50 8,7 C 64 % 1030,7 hPa 0,0 mm SW 232 4,8 km/h (1 Bft)
25.02.2021 18:55 8,4 C 65 % 1030,7 hPa 0,0 mm SW 232 3,2 km/h (1 Bft)
25.02.2021 19:00 8,1 C 65 % 1030,7 hPa 0,0 mm SW 232 3,2 km/h (1 Bft)
25.02.2021 19:05 7,8 C 66 % 1030,7 hPa 0,0 mm SW 232 3,2 km/h (1 Bft)
25.02.2021 19:10 7,6 C 67 % 1030,7 hPa 0,0 mm SW 232 3,2 km/h (1 Bft)
25.02.2021 19:15 7,4 C 67 % 1030,7 hPa 0,0 mm SW 232 0,0 km/h (0 Bft)
25.02.2021 19:20 7,2 C 68 % 1030,8 hPa 0,0 mm SW 232 3,2 km/h (1 Bft)
25.02.2021 19:25 6,9 C 69 % 1030,8 hPa 0,0 mm W-SW 254 4,8 km/h (1 Bft)
25.02.2021 19:30 6,7 C 69 % 1030,8 hPa 0,0 mm W-SW 254 3,2 km/h (1 Bft)
25.02.2021 19:35 6,5 C 70 % 1030,8 hPa 0,0 mm W-SW 254 4,8 km/h (1 Bft)
25.02.2021 19:40 6,3 C 71 % 1030,9 hPa 0,0 mm W-SW 254 4,8 km/h (1 Bft)
25.02.2021 19:45 6,2 C 71 % 1030,9 hPa 0,0 mm W-SW 254 3,2 km/h (1 Bft)
25.02.2021 19:50 6,0 C 72 % 1030,8 hPa 0,0 mm W-SW 254 1,6 km/h (1 Bft)
25.02.2021 19:55 5,8 C 72 % 1030,8 hPa 0,0 mm W-SW 254 3,2 km/h (1 Bft)
25.02.2021 20:00 5,7 C 72 % 1030,8 hPa 0,0 mm W-SW 254 3,2 km/h (1 Bft)
25.02.2021 20:05 5,5 C 73 % 1030,7 hPa 0,0 mm W-SW 254 4,8 km/h (1 Bft)
25.02.2021 20:10 5,4 C 74 % 1030,8 hPa 0,0 mm W-SW 254 4,8 km/h (1 Bft)
25.02.2021 20:15 5,2 C 75 % 1030,8 hPa 0,0 mm W 269 8,0 km/h (2 Bft)
25.02.2021 20:20 5,1 C 76 % 1030,9 hPa 0,0 mm W 269 4,8 km/h (1 Bft)
25.02.2021 20:25 5,1 C 76 % 1031,0 hPa 0,0 mm W 269 6,4 km/h (2 Bft)
25.02.2021 20:30 4,9 C 76 % 1030,9 hPa 0,0 mm W 269 3,2 km/h (1 Bft)
25.02.2021 20:35 4,8 C 76 % 1030,9 hPa 0,0 mm W 269 1,6 km/h (1 Bft)
25.02.2021 20:40 4,7 C 77 % 1031,0 hPa 0,0 mm W 269 1,6 km/h (1 Bft)
25.02.2021 20:45 4,6 C 77 % 1031,0 hPa 0,0 mm W 269 3,2 km/h (1 Bft)
25.02.2021 20:50 4,5 C 77 % 1031,0 hPa 0,0 mm W 269 4,8 km/h (1 Bft)
25.02.2021 20:55 4,4 C 78 % 1031,0 hPa 0,0 mm W 269 3,2 km/h (1 Bft)
25.02.2021 21:00 4,4 C 78 % 1031,1 hPa 0,0 mm W 269 3,2 km/h (1 Bft)
25.02.2021 21:05 4,3 C 78 % 1031,1 hPa 0,0 mm W 269 3,2 km/h (1 Bft)
25.02.2021 21:10 4,2 C 78 % 1031,1 hPa 0,0 mm W 269 1,6 km/h (1 Bft)
25.02.2021 21:15 4,1 C 78 % 1031,2 hPa 0,0 mm W 269 3,2 km/h (1 Bft)
25.02.2021 21:20 4,0 C 78 % 1031,2 hPa 0,0 mm W 269 3,2 km/h (1 Bft)
25.02.2021 21:25 3,9 C 78 % 1031,1 hPa 0,0 mm W 269 1,6 km/h (1 Bft)
25.02.2021 21:30 3,7 C 78 % 1031,2 hPa 0,0 mm W 269 3,2 km/h (1 Bft)
25.02.2021 21:35 3,6 C 78 % 1031,2 hPa 0,0 mm W 269 3,2 km/h (1 Bft)
25.02.2021 21:40 3,4 C 78 % 1031,2 hPa 0,0 mm W 269 3,2 km/h (1 Bft)
25.02.2021 21:45 3,3 C 78 % 1031,2 hPa 0,0 mm W 269 1,6 km/h (1 Bft)
25.02.2021 21:50 3,2 C 78 % 1031,1 hPa 0,0 mm W 269 4,8 km/h (1 Bft)
25.02.2021 21:55 3,1 C 79 % 1031,1 hPa 0,0 mm W 269 4,8 km/h (1 Bft)
25.02.2021 22:00 3,1 C 79 % 1031,2 hPa 0,0 mm W 269 1,6 km/h (1 Bft)
25.02.2021 22:05 2,9 C 79 % 1031,1 hPa 0,0 mm W 269 4,8 km/h (1 Bft)
25.02.2021 22:10 2,9 C 80 % 1031,2 hPa 0,0 mm W 269 3,2 km/h (1 Bft)
25.02.2021 22:15 2,8 C 80 % 1031,1 hPa 0,0 mm W 269 1,6 km/h (1 Bft)
25.02.2021 22:20 2,8 C 80 % 1031,1 hPa 0,0 mm W 269 4,8 km/h (1 Bft)
25.02.2021 22:25 2,7 C 80 % 1031,1 hPa 0,0 mm W 269 4,8 km/h (1 Bft)
25.02.2021 22:30 2,6 C 80 % 1031,1 hPa 0,0 mm W 269 3,2 km/h (1 Bft)
25.02.2021 22:35 2,5 C 80 % 1031,1 hPa 0,0 mm W 269 4,8 km/h (1 Bft)
25.02.2021 22:40 2,4 C 81 % 1031,0 hPa 0,0 mm W 269 3,2 km/h (1 Bft)
25.02.2021 22:45 2,3 C 80 % 1031,0 hPa 0,0 mm W 269 4,8 km/h (1 Bft)
25.02.2021 22:50 2,2 C 81 % 1031,1 hPa 0,0 mm W 269 4,8 km/h (1 Bft)
25.02.2021 22:55 2,2 C 81 % 1031,1 hPa 0,0 mm W 269 4,8 km/h (1 Bft)
25.02.2021 23:00 2,1 C 82 % 1031,0 hPa 0,0 mm W 269 6,4 km/h (2 Bft)
25.02.2021 23:05 2,1 C 82 % 1030,9 hPa 0,0 mm W 269 4,8 km/h (1 Bft)
25.02.2021 23:10 2,1 C 82 % 1031,0 hPa 0,0 mm W 269 1,6 km/h (1 Bft)
25.02.2021 23:15 2,0 C 82 % 1031,0 hPa 0,0 mm W 269 3,2 km/h (1 Bft)
25.02.2021 23:20 1,9 C 82 % 1031,0 hPa 0,0 mm W 269 4,8 km/h (1 Bft)
25.02.2021 23:25 1,9 C 83 % 1031,0 hPa 0,0 mm W 269 4,8 km/h (1 Bft)
25.02.2021 23:30 1,9 C 83 % 1030,9 hPa 0,0 mm W 269 6,4 km/h (2 Bft)
25.02.2021 23:35 1,8 C 83 % 1031,0 hPa 0,0 mm W 269 1,6 km/h (1 Bft)
25.02.2021 23:40 1,8 C 83 % 1031,0 hPa 0,0 mm W 269 3,2 km/h (1 Bft)
25.02.2021 23:45 1,8 C 83 % 1030,9 hPa 0,0 mm W 269 4,8 km/h (1 Bft)
25.02.2021 23:50 1,7 C 83 % 1031,0 hPa 0,0 mm W 269 6,4 km/h (2 Bft)
25.02.2021 23:55 1,7 C 83 % 1031,0 hPa 0,0 mm W 269 3,2 km/h (1 Bft)
_ Min-Zeit 06:45 13:45 16:00 - - - 00:50
Minimum _ -0,9 C 33 % 1029,7 hPa - - - 0,0 km/h (0 Bft)
_ Max-Zeit 14:05 07:45 00:00 08:10 - - 13:30
Maximum _ 18,3 C 90 % 1033,4 hPa 0,2 mm - - 9,7 km/h
O (2 Bft)
Durchschnitt _ 6,9 C 72 % 1031,6 hPa #0,2 mm W - 3,3 km/h (1 Bft)